createdAt,value
2022-10-19T00:02:08.279Z,16.75
2022-10-19T00:04:34.750Z,13.27
2022-10-19T00:07:01.239Z,17.63
2022-10-19T00:09:27.743Z,9.65
2022-10-19T00:11:54.199Z,13.02
2022-10-19T00:14:23.081Z,9.07
2022-10-19T00:16:51.670Z,19.70
2022-10-19T00:19:21.504Z,12.55
2022-10-19T00:21:48.349Z,12.70
2022-10-19T00:24:16.513Z,11.63
2022-10-19T00:26:43.408Z,11.98
2022-10-19T00:29:11.993Z,14.63
2022-10-19T00:31:38.813Z,13.57
2022-10-19T00:34:05.415Z,8.23
2022-10-19T00:36:35.067Z,11.73
2022-10-19T00:39:04.327Z,13.93
2022-10-19T00:41:33.939Z,12.57
2022-10-19T00:44:02.234Z,10.88
2022-10-19T00:46:32.572Z,13.27
2022-10-19T00:49:04.009Z,14.55
2022-10-19T00:51:33.322Z,13.70
2022-10-19T00:54:02.638Z,8.88
2022-10-19T00:56:29.737Z,10.02
2022-10-19T00:58:57.323Z,8.20
2022-10-19T01:01:26.563Z,9.88
2022-10-19T01:03:53.003Z,15.75
2022-10-19T01:06:19.735Z,12.07
2022-10-19T01:08:46.413Z,12.30
2022-10-19T01:11:31.511Z,10.63
2022-10-19T01:14:31.922Z,11.82
2022-10-19T01:17:21.230Z,12.27
2022-10-19T01:20:25.253Z,7.13
2022-10-19T01:23:20.840Z,14.32
2022-10-19T01:26:04.056Z,7.13
2022-10-19T01:28:45.739Z,9.77
2022-10-19T01:31:32.065Z,7.20
2022-10-19T01:34:24.923Z,8.40
2022-10-19T01:37:35.858Z,7.00
2022-10-19T01:40:15.424Z,12.55
2022-10-19T01:42:50.643Z,9.88
2022-10-19T01:45:28.022Z,6.38
2022-10-19T01:48:01.645Z,6.95
2022-10-19T01:50:40.896Z,14.95
2022-10-19T01:53:10.258Z,7.45
2022-10-19T01:55:42.329Z,6.22
2022-10-19T01:58:12.214Z,7.72
2022-10-19T02:00:42.288Z,9.93
2022-10-19T02:03:10.088Z,12.93
2022-10-19T02:05:38.070Z,7.18
2022-10-19T02:08:10.700Z,11.20
2022-10-19T02:10:39.581Z,9.30
2022-10-19T02:13:07.747Z,12.20
2022-10-19T02:15:37.460Z,14.30
2022-10-19T02:18:07.269Z,6.20
2022-10-19T02:20:36.937Z,8.90
2022-10-19T02:23:05.698Z,8.23
2022-10-19T02:25:33.183Z,10.43
2022-10-19T02:28:02.207Z,7.97
2022-10-19T02:30:28.599Z,11.98
2022-10-19T02:32:55.056Z,10.63
2022-10-19T02:35:22.504Z,8.93
2022-10-19T02:37:49.329Z,7.95
2022-10-19T02:40:15.771Z,9.57
2022-10-19T02:42:47.967Z,14.18
2022-10-19T02:45:27.577Z,14.13
2022-10-19T02:48:11.146Z,6.57
2022-10-19T02:50:37.826Z,8.65
2022-10-19T02:53:04.270Z,8.95
2022-10-19T02:55:31.210Z,7.25
2022-10-19T02:57:57.897Z,5.78
2022-10-19T03:00:24.324Z,7.07
2022-10-19T03:02:50.736Z,9.30
2022-10-19T03:05:17.123Z,9.35
2022-10-19T03:07:43.659Z,7.95
2022-10-19T03:10:10.133Z,8.30
2022-10-19T03:12:36.606Z,10.43
2022-10-19T03:15:03.485Z,7.97
2022-10-19T03:17:30.026Z,8.82
2022-10-19T03:19:56.646Z,7.07
2022-10-19T03:22:23.076Z,7.53
2022-10-19T03:24:49.501Z,3.85
2022-10-19T03:27:16.172Z,7.82
2022-10-19T03:29:43.689Z,5.93
2022-10-19T03:32:10.135Z,7.93
2022-10-19T03:34:36.591Z,3.05
2022-10-19T03:37:03.163Z,6.93
2022-10-19T03:39:29.586Z,6.03
2022-10-19T03:41:56.029Z,10.35
2022-10-19T03:44:22.513Z,5.93
2022-10-19T03:46:48.969Z,5.30
2022-10-19T03:49:15.598Z,6.40
2022-10-19T03:51:42.005Z,9.32
2022-10-19T03:54:13.340Z,9.27
2022-10-19T03:56:41.041Z,5.75
2022-10-19T03:59:07.939Z,8.27
2022-10-19T04:01:37.183Z,8.98
2022-10-19T04:04:06.592Z,8.80
2022-10-19T04:06:36.314Z,9.18
2022-10-19T04:09:03.422Z,5.25
2022-10-19T04:11:30.992Z,10.13
2022-10-19T04:13:58.488Z,6.40
2022-10-19T04:16:26.636Z,7.75
2022-10-19T04:18:53.097Z,6.43
2022-10-19T04:21:23.649Z,7.05
2022-10-19T04:23:52.594Z,5.75
2022-10-19T04:26:20.474Z,7.32
2022-10-19T04:28:47.222Z,5.68
2022-10-19T04:31:13.783Z,5.72
2022-10-19T04:33:40.414Z,7.72
2022-10-19T04:36:10.704Z,6.10
2022-10-19T04:38:38.903Z,8.10
2022-10-19T04:41:10.442Z,7.30
2022-10-19T04:43:38.319Z,6.97
2022-10-19T04:46:10.201Z,8.50
2022-10-19T04:48:37.988Z,5.15
2022-10-19T04:51:05.430Z,7.10
2022-10-19T04:53:33.375Z,7.20
2022-10-19T04:56:00.033Z,5.30
2022-10-19T04:58:27.274Z,4.10
2022-10-19T05:00:53.942Z,8.02
2022-10-19T05:03:20.386Z,5.75
2022-10-19T05:05:46.827Z,5.10
2022-10-19T05:08:13.285Z,5.65
2022-10-19T05:10:41.209Z,4.95
2022-10-19T05:13:09.503Z,7.45
2022-10-19T05:15:37.209Z,5.82
2022-10-19T05:18:04.681Z,7.95
2022-10-19T05:20:31.104Z,5.85
2022-10-19T05:22:57.673Z,7.50
2022-10-19T05:25:24.275Z,3.90
2022-10-19T05:27:52.579Z,4.82
2022-10-19T05:30:21.724Z,7.43
2022-10-19T05:32:48.708Z,5.97
2022-10-19T05:35:17.509Z,6.75
2022-10-19T05:37:46.484Z,6.47
2022-10-19T05:40:12.938Z,10.30
2022-10-19T05:42:39.833Z,7.55
2022-10-19T05:45:06.612Z,6.68
2022-10-19T05:47:34.039Z,8.15
2022-10-19T05:50:00.642Z,6.45
2022-10-19T05:52:27.691Z,5.75
2022-10-19T05:54:54.100Z,6.72
2022-10-19T05:57:20.542Z,7.03
2022-10-19T05:59:47.183Z,8.65
2022-10-19T06:02:14.165Z,5.78
2022-10-19T06:04:40.646Z,7.30
2022-10-19T06:07:07.091Z,8.30
2022-10-19T06:09:36.208Z,5.90
2022-10-19T06:12:03.527Z,5.20
2022-10-19T06:14:29.950Z,7.38
2022-10-19T06:16:56.343Z,6.57
2022-10-19T06:19:22.756Z,4.78
2022-10-19T06:21:49.269Z,6.30
2022-10-19T06:24:15.678Z,7.63
2022-10-19T06:26:42.155Z,5.97
2022-10-19T06:29:09.738Z,7.88
2022-10-19T06:31:36.500Z,5.70
2022-10-19T06:34:03.067Z,4.68
2022-10-19T06:36:31.402Z,10.07
2022-10-19T06:38:59.643Z,5.05
2022-10-19T06:41:26.486Z,5.07
2022-10-19T06:43:54.271Z,3.55
2022-10-19T06:46:23.292Z,8.82
2022-10-19T06:48:51.435Z,9.55
2022-10-19T06:51:18.116Z,4.70
2022-10-19T06:53:46.914Z,6.47
2022-10-19T06:56:13.331Z,6.78
2022-10-19T06:58:40.257Z,7.35
2022-10-19T07:01:08.568Z,12.98
2022-10-19T07:03:36.071Z,7.13
2022-10-19T07:06:05.505Z,6.88
2022-10-19T07:08:32.889Z,5.22
2022-10-19T07:11:01.651Z,10.73
2022-10-19T07:13:29.356Z,6.93
2022-10-19T07:16:06.636Z,9.32
2022-10-19T07:18:35.030Z,8.60
2022-10-19T07:21:03.403Z,10.52
2022-10-19T07:23:31.684Z,6.10
2022-10-19T07:26:02.125Z,7.32
2022-10-19T07:28:30.120Z,10.57
2022-10-19T07:30:57.012Z,4.57
2022-10-19T07:33:23.764Z,4.15
2022-10-19T07:35:50.221Z,5.00
2022-10-19T07:38:16.832Z,3.40
2022-10-19T07:40:46.406Z,5.50
2022-10-19T07:43:14.353Z,7.20
2022-10-19T07:45:40.812Z,4.70
2022-10-19T07:48:07.247Z,3.90
2022-10-19T07:50:34.827Z,4.90
2022-10-19T07:53:03.357Z,4.28
2022-10-19T07:55:29.836Z,5.85
2022-10-19T07:57:56.236Z,6.40
2022-10-19T08:00:22.748Z,6.20
2022-10-19T08:02:57.780Z,7.32
2022-10-19T08:05:26.541Z,9.00
2022-10-19T08:07:52.983Z,8.52
2022-10-19T08:10:19.445Z,6.85
2022-10-19T08:12:45.876Z,8.00
2022-10-19T08:15:12.285Z,9.07
2022-10-19T08:17:39.682Z,7.60
2022-10-19T08:20:07.527Z,5.15
2022-10-19T08:22:34.372Z,7.82
2022-10-19T08:25:01.010Z,4.25
2022-10-19T08:27:27.573Z,5.18
2022-10-19T08:29:54.194Z,7.18
2022-10-19T08:32:21.383Z,5.30
2022-10-19T08:34:48.084Z,7.28
2022-10-19T08:37:25.670Z,7.03
2022-10-19T08:39:59.300Z,5.63
2022-10-19T08:42:36.007Z,5.20
2022-10-19T08:45:32.141Z,7.25
2022-10-19T08:48:10.246Z,10.07
2022-10-19T08:50:39.858Z,9.43
2022-10-19T08:53:24.486Z,5.65
2022-10-19T08:56:06.169Z,5.40
2022-10-19T08:58:51.897Z,11.25
2022-10-19T09:01:47.123Z,6.13
2022-10-19T09:04:21.542Z,5.38
2022-10-19T09:06:57.407Z,4.72
2022-10-19T09:09:25.266Z,6.18
2022-10-19T09:11:57.010Z,5.45
2022-10-19T09:14:47.193Z,9.07
2022-10-19T09:17:15.893Z,8.35
2022-10-19T09:19:42.475Z,7.45
2022-10-19T09:22:20.432Z,5.43
2022-10-19T09:24:52.287Z,6.35
2022-10-19T09:27:22.160Z,2.67
2022-10-19T09:29:57.374Z,4.75
2022-10-19T09:32:32.683Z,4.93
2022-10-19T09:35:02.524Z,4.18
2022-10-19T09:37:35.301Z,11.48
2022-10-19T09:40:01.764Z,3.42
2022-10-19T09:42:30.202Z,3.70
2022-10-19T09:44:59.663Z,5.15
2022-10-19T09:47:38.990Z,5.45
2022-10-19T09:50:17.601Z,3.20
2022-10-19T09:52:46.164Z,7.93
2022-10-19T09:55:15.711Z,5.25
2022-10-19T09:57:50.587Z,4.47
2022-10-19T10:00:19.363Z,6.30
2022-10-19T10:02:51.140Z,4.97
2022-10-19T10:05:18.114Z,5.50
2022-10-19T10:07:44.677Z,4.00
2022-10-19T10:10:26.844Z,3.95
2022-10-19T10:12:59.758Z,4.22
2022-10-19T10:15:40.986Z,5.22
2022-10-19T10:18:13.099Z,4.97
2022-10-19T10:21:03.102Z,3.30
2022-10-19T10:23:36.159Z,3.78
2022-10-19T10:26:04.213Z,0.50
2022-10-19T10:28:31.868Z,2.10
2022-10-19T10:31:10.456Z,1.63
2022-10-19T10:33:45.156Z,2.63
2022-10-19T10:36:12.627Z,1.13
2022-10-19T10:38:43.510Z,3.50
2022-10-19T10:43:49.675Z,3.83
2022-10-19T10:46:21.977Z,2.92
2022-10-19T10:49:06.985Z,3.85
2022-10-19T10:51:49.193Z,2.67
2022-10-19T10:54:31.293Z,1.77
2022-10-19T10:57:16.160Z,3.85
2022-10-19T11:00:24.843Z,5.47
2022-10-19T11:03:02.221Z,2.92
2022-10-19T11:05:32.108Z,2.95
2022-10-19T11:08:22.521Z,3.92
2022-10-19T11:10:55.558Z,6.15
2022-10-19T11:13:33.893Z,2.80
2022-10-19T11:16:06.592Z,4.28
2022-10-19T11:18:41.164Z,1.75
2022-10-19T11:21:12.576Z,3.05
2022-10-19T11:23:55.629Z,2.45
2022-10-19T11:26:41.015Z,4.00
2022-10-19T11:29:23.500Z,2.67
2022-10-19T11:31:53.854Z,3.58
2022-10-19T11:34:25.836Z,2.88
2022-10-19T11:37:06.113Z,7.18
2022-10-19T11:40:00.166Z,3.65
2022-10-19T11:42:54.340Z,4.55
2022-10-19T11:45:30.895Z,3.97
2022-10-19T11:48:43.812Z,1.23
2022-10-19T11:51:35.916Z,4.22
2022-10-19T11:54:17.716Z,3.25
2022-10-19T11:57:03.941Z,3.63
2022-10-19T12:00:13.627Z,4.05
2022-10-19T12:03:21.036Z,2.90
2022-10-19T12:06:09.427Z,4.10
2022-10-19T12:08:56.827Z,3.35
2022-10-19T12:11:48.580Z,7.57
2022-10-19T12:14:21.878Z,7.93
2022-10-19T12:16:53.448Z,3.63
2022-10-19T12:19:25.078Z,5.07
2022-10-19T12:21:54.921Z,3.35
2022-10-19T12:24:24.643Z,3.15
2022-10-19T12:26:53.031Z,1.92
2022-10-19T12:29:23.436Z,3.53
2022-10-19T12:31:50.882Z,6.28
2022-10-19T12:34:35.438Z,4.65
2022-10-19T12:37:34.621Z,1.63
2022-10-19T12:40:39.977Z,1.65
2022-10-19T12:43:14.781Z,2.75
2022-10-19T12:45:46.676Z,4.43
2022-10-19T12:48:13.288Z,3.05
2022-10-19T12:51:00.744Z,3.50
2022-10-19T12:53:35.960Z,3.92
2022-10-19T12:56:15.075Z,3.13
2022-10-19T12:58:47.435Z,5.00
2022-10-19T13:01:24.263Z,1.75
2022-10-19T13:04:06.763Z,5.72
2022-10-19T13:06:36.673Z,4.47
2022-10-19T13:09:06.500Z,2.85
2022-10-19T13:14:06.718Z,9.45
2022-10-19T13:16:40.628Z,2.97
2022-10-19T13:19:13.034Z,4.22
2022-10-19T13:21:46.878Z,3.25
2022-10-19T13:24:20.412Z,6.53
2022-10-19T13:26:46.898Z,4.30
2022-10-19T13:29:26.795Z,4.45
2022-10-19T13:31:53.496Z,4.10
2022-10-19T13:34:19.908Z,4.35
2022-10-19T13:37:03.535Z,6.53
2022-10-19T13:39:30.253Z,4.07
2022-10-19T13:41:57.235Z,4.38
2022-10-19T13:44:26.596Z,6.47
2022-10-19T13:47:14.572Z,6.15
2022-10-19T13:50:00.386Z,2.75
2022-10-19T13:52:32.854Z,3.42
2022-10-19T13:55:20.958Z,5.32
2022-10-19T13:58:19.680Z,5.43
2022-10-19T14:00:58.375Z,3.72
2022-10-19T14:03:53.712Z,7.88
2022-10-19T14:06:42.421Z,5.82
2022-10-19T14:09:36.890Z,4.22
2022-10-19T14:12:22.668Z,7.38
2022-10-19T14:14:51.924Z,4.22
2022-10-19T14:17:22.900Z,3.65
2022-10-19T14:22:26.187Z,3.17
2022-10-19T14:25:00.853Z,2.33
2022-10-19T14:27:27.543Z,2.10
2022-10-19T14:29:54.536Z,3.53
2022-10-19T14:32:30.303Z,4.28
2022-10-19T14:37:31.124Z,3.92
2022-10-19T14:40:04.087Z,5.05
2022-10-19T14:42:40.856Z,3.20
2022-10-19T14:45:21.239Z,2.45
2022-10-19T14:47:53.057Z,9.18
2022-10-19T14:50:24.062Z,6.95
2022-10-19T14:55:22.012Z,2.80
2022-10-19T14:57:52.097Z,5.40
2022-10-19T15:00:21.179Z,5.38
2022-10-19T15:03:04.030Z,4.80
2022-10-19T15:05:34.523Z,3.33
2022-10-19T15:08:17.767Z,4.53
2022-10-19T15:10:46.792Z,13.30
2022-10-19T15:13:28.496Z,8.48
2022-10-19T15:15:55.975Z,11.70
2022-10-19T15:18:47.706Z,9.65
2022-10-19T15:21:18.229Z,3.97
2022-10-19T15:23:47.080Z,9.27
2022-10-19T15:26:39.860Z,23.48
2022-10-19T15:29:19.227Z,12.95
2022-10-19T15:31:45.672Z,4.47
2022-10-19T15:34:28.411Z,5.38
2022-10-19T15:36:58.026Z,3.08
2022-10-19T15:39:38.752Z,3.67
2022-10-19T15:42:36.659Z,8.07
2022-10-19T15:45:24.647Z,2.85
2022-10-19T15:48:09.798Z,3.22
2022-10-19T15:50:41.977Z,4.10
2022-10-19T15:53:08.758Z,3.08
2022-10-19T15:55:35.542Z,6.50
2022-10-19T15:58:02.169Z,4.35
2022-10-19T16:00:30.063Z,4.80
2022-10-19T16:02:56.743Z,4.82
2022-10-19T16:05:26.304Z,2.33
2022-10-19T16:07:52.772Z,4.28
2022-10-19T16:10:22.872Z,9.13
2022-10-19T16:12:49.619Z,6.65
2022-10-19T16:15:22.284Z,10.15
2022-10-19T16:17:50.744Z,5.43
2022-10-19T16:20:17.788Z,5.85
2022-10-19T16:22:44.755Z,5.30
2022-10-19T16:25:11.803Z,5.13
2022-10-19T16:27:38.588Z,4.43
2022-10-19T16:30:06.362Z,8.38
2022-10-19T16:32:32.840Z,10.40
2022-10-19T16:34:59.267Z,6.75
2022-10-19T16:37:25.674Z,4.25
2022-10-19T16:39:52.062Z,5.22
2022-10-19T16:42:18.487Z,6.07
2022-10-19T16:44:44.914Z,4.97
2022-10-19T16:47:11.346Z,8.65
2022-10-19T16:49:37.798Z,5.43
2022-10-19T16:52:06.022Z,7.75
2022-10-19T16:54:32.801Z,9.63
2022-10-19T16:56:59.256Z,6.78
2022-10-19T16:59:25.699Z,5.57
2022-10-19T17:01:52.274Z,3.85
2022-10-19T17:04:18.767Z,4.65
2022-10-19T17:06:45.257Z,4.75
2022-10-19T17:09:40.242Z,5.90
2022-10-19T17:11:58.351Z,7.00
2022-10-19T17:14:24.781Z,5.70
2022-10-19T17:16:51.241Z,4.50
2022-10-19T17:19:17.650Z,3.65
2022-10-19T17:21:44.493Z,9.45
2022-10-19T17:24:21.089Z,5.13
2022-10-19T17:26:50.028Z,5.32
2022-10-19T17:29:16.488Z,4.05
2022-10-19T17:31:43.243Z,7.93
2022-10-19T17:34:10.015Z,4.68
2022-10-19T17:39:20.888Z,5.03
2022-10-19T17:41:51.594Z,6.97
2022-10-19T17:44:21.508Z,4.13
2022-10-19T17:46:48.090Z,8.20
2022-10-19T17:49:14.643Z,8.77
2022-10-19T17:51:41.319Z,6.80
2022-10-19T17:54:14.403Z,8.13
2022-10-19T17:56:44.765Z,4.00
2022-10-19T17:59:11.764Z,5.13
2022-10-19T18:01:38.530Z,7.80
2022-10-19T18:04:05.559Z,5.13
2022-10-19T18:06:35.300Z,5.45
2022-10-19T18:09:03.666Z,7.00
2022-10-19T18:11:34.559Z,11.27
2022-10-19T18:14:05.728Z,8.50
2022-10-19T18:16:37.946Z,9.18
2022-10-19T18:19:05.210Z,10.43
2022-10-19T18:21:34.883Z,9.15
2022-10-19T18:24:02.400Z,11.05
2022-10-19T18:26:30.978Z,13.95
2022-10-19T18:28:58.079Z,15.85
2022-10-19T18:31:29.189Z,17.48
2022-10-19T18:34:01.078Z,23.30
2022-10-19T18:36:29.107Z,23.63
2022-10-19T18:39:00.252Z,22.55
2022-10-19T18:41:27.676Z,14.20
2022-10-19T18:43:57.482Z,15.50
2022-10-19T18:46:25.160Z,15.65
2022-10-19T18:48:52.612Z,14.73
2022-10-19T18:51:20.290Z,15.35
2022-10-19T18:53:47.367Z,12.77
2022-10-19T18:56:16.375Z,13.70
2022-10-19T18:58:43.492Z,10.27
2022-10-19T19:01:12.946Z,13.98
2022-10-19T19:03:41.515Z,14.30
2022-10-19T19:06:11.196Z,11.38
2022-10-19T19:08:38.570Z,16.05
2022-10-19T19:11:23.002Z,17.20
2022-10-19T19:16:17.214Z,12.40
2022-10-19T19:18:44.138Z,13.98
2022-10-19T19:21:16.880Z,8.15
2022-10-19T19:23:43.984Z,6.65
2022-10-19T19:26:12.740Z,8.05
2022-10-19T19:28:41.597Z,7.85
2022-10-19T19:31:10.070Z,6.35
2022-10-19T19:33:36.588Z,9.27
2022-10-19T19:36:07.904Z,8.02
2022-10-19T19:38:36.624Z,7.30
2022-10-19T19:41:05.012Z,6.95
2022-10-19T19:43:32.996Z,7.90
2022-10-19T19:46:06.182Z,6.85
2022-10-19T19:48:36.136Z,7.97
2022-10-19T19:51:02.543Z,7.85
2022-10-19T19:53:28.991Z,10.23
2022-10-19T19:55:55.452Z,10.48
2022-10-19T19:58:21.912Z,7.97
2022-10-19T20:00:48.566Z,7.05
2022-10-19T20:03:16.798Z,10.57
2022-10-19T20:05:43.265Z,9.65
2022-10-19T20:08:10.193Z,13.50
2022-10-19T20:10:41.466Z,14.40
2022-10-19T20:13:08.141Z,11.65
2022-10-19T20:15:37.840Z,15.75
2022-10-19T20:18:04.717Z,14.38
2022-10-19T20:20:31.205Z,14.48
2022-10-19T20:22:57.646Z,13.02
2022-10-19T20:25:24.111Z,12.48
2022-10-19T20:27:50.531Z,12.18
2022-10-19T20:30:17.125Z,18.60
2022-10-19T20:32:43.788Z,18.90
2022-10-19T20:35:11.588Z,18.05
2022-10-19T20:37:38.082Z,15.38
2022-10-19T20:40:08.501Z,15.13
2022-10-19T20:42:35.834Z,14.40
2022-10-19T20:45:02.651Z,18.75
2022-10-19T20:47:29.390Z,18.45
2022-10-19T20:49:56.372Z,11.93
2022-10-19T20:52:22.983Z,12.23
2022-10-19T20:54:49.450Z,16.15
2022-10-19T20:57:15.883Z,13.82
2022-10-19T20:59:43.919Z,15.45
2022-10-19T21:02:11.367Z,14.20
2022-10-19T21:04:37.909Z,13.65
2022-10-19T21:07:05.017Z,15.25
2022-10-19T21:09:31.728Z,14.32
2022-10-19T21:11:58.200Z,15.35
2022-10-19T21:14:28.562Z,16.48
2022-10-19T21:16:58.245Z,17.83
2022-10-19T21:19:26.384Z,17.10
2022-10-19T21:21:55.615Z,16.88
2022-10-19T21:24:25.308Z,17.80
2022-10-19T21:29:23.488Z,17.55
2022-10-19T21:31:52.125Z,15.48
2022-10-19T21:34:24.350Z,12.63
2022-10-19T21:36:51.049Z,13.75
2022-10-19T21:39:18.294Z,13.30
2022-10-19T21:41:44.821Z,12.02
2022-10-19T21:44:11.332Z,13.43
2022-10-19T21:46:37.733Z,17.58
2022-10-19T21:49:04.404Z,14.15
2022-10-19T21:51:51.990Z,14.27
2022-10-19T21:54:20.934Z,15.60
2022-10-19T21:56:48.161Z,13.90
2022-10-19T21:59:15.313Z,15.40
2022-10-19T22:01:41.919Z,15.73
2022-10-19T22:04:17.164Z,16.98
2022-10-19T22:06:44.136Z,16.02
2022-10-19T22:09:13.804Z,14.18
2022-10-19T22:11:40.781Z,15.40
2022-10-19T22:14:07.587Z,16.85
2022-10-19T22:16:35.000Z,16.27
2022-10-19T22:19:01.445Z,13.98
2022-10-19T22:21:32.158Z,17.80
2022-10-19T22:24:01.230Z,14.00
2022-10-19T22:26:33.411Z,14.27
2022-10-19T22:29:01.715Z,15.18
2022-10-19T22:31:30.759Z,16.77
2022-10-19T22:33:57.283Z,14.95
2022-10-19T22:36:25.905Z,16.02
2022-10-19T22:38:52.346Z,14.68
2022-10-19T22:41:18.820Z,21.13
2022-10-19T22:43:46.454Z,15.00
2022-10-19T22:46:12.882Z,16.92
2022-10-19T22:48:39.287Z,11.82
2022-10-19T22:51:05.704Z,12.98
2022-10-19T22:53:32.828Z,14.95
2022-10-19T22:55:59.234Z,12.82
2022-10-19T22:58:25.700Z,14.40
2022-10-19T23:01:12.743Z,14.70
2022-10-19T23:03:40.312Z,12.60
2022-10-19T23:06:08.638Z,12.15
2022-10-19T23:08:35.270Z,13.57
2022-10-19T23:11:01.710Z,12.23
2022-10-19T23:13:28.239Z,13.23
2022-10-19T23:15:54.702Z,12.15
2022-10-19T23:18:21.492Z,15.13
2022-10-19T23:20:59.171Z,10.52
2022-10-19T23:23:25.929Z,10.07
2022-10-19T23:26:00.213Z,13.02
2022-10-19T23:28:26.921Z,11.13
2022-10-19T23:30:53.715Z,15.18
2022-10-19T23:33:20.170Z,11.55
2022-10-19T23:35:46.750Z,12.10
2022-10-19T23:38:13.180Z,15.55
2022-10-19T23:40:40.137Z,12.00
2022-10-19T23:43:06.580Z,13.63
2022-10-19T23:45:33.029Z,14.55
2022-10-19T23:47:59.415Z,11.93
2022-10-19T23:50:25.974Z,10.23
2022-10-19T23:52:52.380Z,12.82
2022-10-19T23:55:18.820Z,12.35
2022-10-19T23:57:45.373Z,14.15
